Time;durP1;ratioP1;P1;durP2;ratioP2;P2;SDS_P1;SDS_P2;PMS_P1;PMS_P2;Temp;Humidity;BMP_temperature;BMP_pressure;BME280_temperature;BME280_humidity;BME280_pressure;Samples;Min_cycle;Max_cycle;Signal;HPM_P1;HPM_P2
2022/08/27 00:02:08;;;;;;;;;;;;;;;24.75;48.06;98940.41;5005469;28;19914;-78
2022/08/27 00:04:34;;;;;;;;;;;;;;;24.72;48.26;98943.69;5005459;28;19937;-78
2022/08/27 00:07:00;;;;;;;;;;;;;;;24.70;47.89;98945.84;5005391;28;20278;-78
2022/08/27 00:09:26;;;;;;;;;;;;;;;24.67;47.83;98941.81;5005267;28;19921;-78
2022/08/27 00:11:51;;;;;;;;;;;;;;;24.64;47.73;98937.00;5005711;28;19974;-78
2022/08/27 00:14:16;;;;;;;;;;;;;;;24.57;48.09;98933.84;5004091;28;19964;-78
2022/08/27 00:16:42;;;;;;;;;;;;;;;24.53;48.54;98930.09;5005215;28;19956;-78
2022/08/27 00:19:07;;;;;;;;;;;;;;;24.53;48.54;98935.50;5004913;28;20398;-78
2022/08/27 00:21:33;;;;;;;;;;;;;;;24.50;48.13;98938.72;5005143;28;20454;-78
2022/08/27 00:23:58;;;;;;;;;;;;;;;24.45;48.47;98941.47;5004968;28;20390;-78
2022/08/27 00:26:24;;;;;;;;;;;;;;;24.38;48.75;98933.69;5005121;28;19996;-78
2022/08/27 00:28:49;;;;;;;;;;;;;;;24.36;48.94;98930.47;5005294;28;19956;-78
2022/08/27 00:31:15;;;;;;;;;;;;;;;24.33;48.27;98930.25;4995298;28;19947;-78
2022/08/27 00:33:40;;;;;;;;;;;;;;;24.30;48.39;98928.91;4991944;28;19914;-78
2022/08/27 00:36:06;;;;;;;;;;;;;;;24.24;48.30;98926.50;4992133;28;19967;-78
2022/08/27 00:38:32;;;;;;;;;;;;;;;24.19;49.01;98927.34;4991856;28;19922;-78
2022/08/27 00:41:00;;;;;;;;;;;;;;;24.17;48.75;98931.41;4992250;28;20359;-78
2022/08/27 00:43:26;;;;;;;;;;;;;;;24.16;48.53;98937.91;4992040;28;19920;-78
2022/08/27 00:45:54;;;;;;;;;;;;;;;24.12;48.72;98939.56;4992026;28;19972;-78
2022/08/27 00:48:20;;;;;;;;;;;;;;;24.08;48.91;98934.72;4991930;28;19937;-78
2022/08/27 00:50:47;;;;;;;;;;;;;;;24.05;49.08;98939.88;4991868;28;19917;-78
2022/08/27 00:53:15;;;;;;;;;;;;;;;24.02;48.78;98941.25;4992079;28;19957;-78
2022/08/27 00:55:45;;;;;;;;;;;;;;;24.00;49.25;98948.00;4991793;28;19914;-78
2022/08/27 00:58:19;;;;;;;;;;;;;;;23.96;49.14;98947.75;4991700;28;19921;-77
2022/08/27 01:00:46;;;;;;;;;;;;;;;23.92;49.24;98941.31;4991888;28;19914;-78
2022/08/27 01:03:11;;;;;;;;;;;;;;;23.88;49.78;98945.66;4990470;28;20321;-78
2022/08/27 01:05:37;;;;;;;;;;;;;;;23.88;49.58;98942.94;4991735;28;19921;-77
2022/08/27 01:08:06;;;;;;;;;;;;;;;23.90;49.77;98942.69;4990224;28;19956;-78
2022/08/27 01:10:32;;;;;;;;;;;;;;;23.89;49.73;98944.56;4991656;28;20327;-77
2022/08/27 01:12:57;;;;;;;;;;;;;;;23.89;49.52;98938.38;4991454;28;19951;-78
2022/08/27 01:15:25;;;;;;;;;;;;;;;23.85;49.71;98938.13;4991607;28;19918;-78
2022/08/27 01:17:51;;;;;;;;;;;;;;;23.79;49.53;98935.75;4991372;28;19914;-78
2022/08/27 01:20:19;;;;;;;;;;;;;;;23.73;49.83;98929.53;4989861;28;20389;-77
2022/08/27 01:22:44;;;;;;;;;;;;;;;23.69;49.64;98929.28;4991394;28;20378;-78
2022/08/27 01:25:12;;;;;;;;;;;;;;;23.66;49.62;98937.94;4991283;28;19921;-78
2022/08/27 01:27:38;;;;;;;;;;;;;;;23.62;50.24;98939.56;4991218;28;19921;-77
2022/08/27 01:30:04;;;;;;;;;;;;;;;23.60;49.73;98939.03;4991109;28;19914;-78
2022/08/27 01:32:31;;;;;;;;;;;;;;;23.58;49.81;98935.81;4989729;28;19913;-78
2022/08/27 01:34:57;;;;;;;;;;;;;;;23.56;49.62;98939.88;4990985;28;19914;-78
2022/08/27 01:37:24;;;;;;;;;;;;;;;23.51;50.11;98937.97;4991056;28;19914;-76
2022/08/27 01:39:50;;;;;;;;;;;;;;;23.52;49.89;98941.50;4990899;28;19921;-76
2022/08/27 01:42:21;;;;;;;;;;;;;;;23.50;49.97;98940.97;4989839;28;19924;-76
2022/08/27 01:44:50;;;;;;;;;;;;;;;23.49;50.11;98945.53;4990930;28;19913;-76
2022/08/27 01:47:18;;;;;;;;;;;;;;;23.52;50.16;98947.69;4990871;28;19914;-76
2022/08/27 01:49:44;;;;;;;;;;;;;;;23.49;49.86;98947.44;4989618;28;19914;-76
2022/08/27 01:52:10;;;;;;;;;;;;;;;23.46;50.00;98949.59;4990828;28;20076;-76
2022/08/27 01:54:35;;;;;;;;;;;;;;;23.51;49.97;98950.66;4989610;28;19921;-76
2022/08/27 01:57:00;;;;;;;;;;;;;;;23.55;50.17;98957.13;4990690;28;20302;-76
2022/08/27 01:59:26;;;;;;;;;;;;;;;23.54;50.48;98958.19;4989178;28;19917;-76
2022/08/27 02:01:53;;;;;;;;;;;;;;;23.56;49.69;98958.75;4990589;28;20479;-76
2022/08/27 02:04:18;;;;;;;;;;;;;;;23.52;50.77;98955.75;4989316;28;19918;-76
2022/08/27 02:06:44;;;;;;;;;;;;;;;23.48;50.46;98953.91;4990586;28;19921;-76
2022/08/27 02:09:09;;;;;;;;;;;;;;;23.42;49.95;98948.53;4990604;28;19914;-76
2022/08/27 02:11:34;;;;;;;;;;;;;;;23.39;50.03;98943.69;4990597;28;19914;-76
2022/08/27 02:14:00;;;;;;;;;;;;;;;23.38;49.72;98944.78;4990571;28;19956;-76
2022/08/27 02:16:25;;;;;;;;;;;;;;;23.42;50.31;98948.53;4990673;28;19917;-76
2022/08/27 02:18:53;;;;;;;;;;;;;;;23.44;49.70;98948.25;4989979;28;19924;-76
2022/08/27 02:21:18;;;;;;;;;;;;;;;23.46;50.01;98949.59;4989105;28;20363;-77
2022/08/27 02:23:44;;;;;;;;;;;;;;;23.45;50.19;98947.97;4990470;28;19913;-77
2022/08/27 02:26:09;;;;;;;;;;;;;;;23.49;49.71;98945.53;4990466;28;19913;-76
2022/08/27 02:28:35;;;;;;;;;;;;;;;23.48;49.87;98941.22;4990183;28;19914;-77
2022/08/27 02:31:00;;;;;;;;;;;;;;;23.48;49.94;98945.81;4988922;28;19914;-77
2022/08/27 02:33:25;;;;;;;;;;;;;;;23.50;50.00;98951.72;4990352;28;19921;-77
2022/08/27 02:35:51;;;;;;;;;;;;;;;23.50;50.31;98949.03;4990327;28;20394;-77
2022/08/27 02:38:16;;;;;;;;;;;;;;;23.53;49.89;98945.78;4988757;28;19918;-77
2022/08/27 02:40:42;;;;;;;;;;;;;;;23.54;49.83;98947.41;4990039;28;20019;-77
2022/08/27 02:43:08;;;;;;;;;;;;;;;23.54;49.77;98942.81;4990097;28;19921;-77
2022/08/27 02:45:35;;;;;;;;;;;;;;;23.52;51.01;98949.56;4989996;28;19914;-77
2022/08/27 02:48:00;;;;;;;;;;;;;;;23.50;50.89;98947.16;4990149;28;19914;-77
2022/08/27 02:50:26;;;;;;;;;;;;;;;23.46;50.34;98948.78;4990262;28;19910;-77
2022/08/27 02:52:51;;;;;;;;;;;;;;;23.44;50.93;98940.97;4988600;28;19961;-77
2022/08/27 02:55:16;;;;;;;;;;;;;;;23.45;50.36;98939.09;4989942;28;20366;-77
2022/08/27 02:57:42;;;;;;;;;;;;;;;23.43;50.44;98939.38;4989908;28;19909;-76
2022/08/27 03:00:09;;;;;;;;;;;;;;;23.45;50.53;98944.47;4989690;28;19922;-76
2022/08/27 03:02:35;;;;;;;;;;;;;;;23.44;50.15;98949.06;4990302;28;20004;-76
2022/08/27 03:05:01;;;;;;;;;;;;;;;23.38;50.37;98944.78;4989893;28;20377;-77
2022/08/27 03:07:26;;;;;;;;;;;;;;;23.27;50.68;98950.50;4988452;28;19913;-77
2022/08/27 03:09:51;;;;;;;;;;;;;;;23.20;50.35;98945.41;4989632;28;19921;-77
2022/08/27 03:12:17;;;;;;;;;;;;;;;23.15;50.45;98937.34;4989743;28;19957;-77
2022/08/27 03:14:42;;;;;;;;;;;;;;;23.07;50.93;98941.41;4989808;28;19914;-77
2022/08/27 03:19:51;;;;;;;;;;;;;;;22.95;51.29;98948.13;4989320;28;20019;-77
2022/08/27 03:22:16;;;;;;;;;;;;;;;22.90;51.10;98938.19;4989684;28;19914;-77
2022/08/27 03:24:41;;;;;;;;;;;;;;;22.90;51.01;98942.75;4989599;28;20441;-77
2022/08/27 03:27:07;;;;;;;;;;;;;;;22.91;51.11;98952.44;4988345;28;19967;-77
2022/08/27 03:29:33;;;;;;;;;;;;;;;22.89;51.16;98957.31;4989329;28;20012;-76
2022/08/27 03:31:59;;;;;;;;;;;;;;;22.80;51.64;98959.75;4989486;28;19924;-77
2022/08/27 03:34:24;;;;;;;;;;;;;;;22.72;51.36;98950.31;4989520;28;20004;-76
2022/08/27 03:36:50;;;;;;;;;;;;;;;22.65;51.78;98951.66;4989397;28;19967;-77
2022/08/27 03:39:15;;;;;;;;;;;;;;;22.67;51.66;98946.81;4989300;28;19933;-77
2022/08/27 03:41:40;;;;;;;;;;;;;;;22.70;51.47;98952.47;4989298;28;19920;-77
2022/08/27 03:44:06;;;;;;;;;;;;;;;22.74;51.31;98958.91;4989301;28;19948;-77
2022/08/27 03:46:31;;;;;;;;;;;;;;;22.75;51.60;98959.72;4989298;28;19963;-77
2022/08/27 03:48:56;;;;;;;;;;;;;;;22.71;51.51;98967.53;4989324;28;20317;-77
2022/08/27 03:51:22;;;;;;;;;;;;;;;22.72;51.44;98965.66;4989225;28;19914;-77
2022/08/27 03:53:47;;;;;;;;;;;;;;;22.75;51.53;98978.56;4989206;28;20059;-76
2022/08/27 03:56:13;;;;;;;;;;;;;;;22.77;51.46;98971.81;4987861;28;20377;-77
2022/08/27 03:58:39;;;;;;;;;;;;;;;22.75;52.02;98973.19;4989096;28;20526;-77
2022/08/27 04:01:04;;;;;;;;;;;;;;;22.70;51.37;98979.38;4989589;28;20364;-77
2022/08/27 04:03:30;;;;;;;;;;;;;;;22.66;51.38;98974.81;4988995;28;20006;-77
2022/08/27 04:05:55;;;;;;;;;;;;;;;22.64;51.39;98975.06;4990394;28;20313;-76
2022/08/27 04:08:21;;;;;;;;;;;;;;;22.63;51.53;98978.84;4992384;28;19910;-76
2022/08/27 04:10:47;;;;;;;;;;;;;;;22.62;51.70;98977.22;4993037;28;19914;-77
2022/08/27 04:13:13;;;;;;;;;;;;;;;22.69;51.54;98980.44;4992306;28;19922;-76
2022/08/27 04:15:43;;;;;;;;;;;;;;;22.74;51.36;98987.72;4992308;28;19921;-76
2022/08/27 04:18:08;;;;;;;;;;;;;;;22.79;50.94;98987.72;4992025;28;19957;-76
2022/08/27 04:20:33;;;;;;;;;;;;;;;22.81;51.19;98986.38;4992359;28;19960;-77
2022/08/27 04:22:59;;;;;;;;;;;;;;;22.86;51.14;98988.25;4992197;28;19914;-77
2022/08/27 04:25:24;;;;;;;;;;;;;;;22.90;51.19;98988.53;4992288;28;19971;-77
2022/08/27 04:27:49;;;;;;;;;;;;;;;22.88;51.00;98983.41;4992185;28;19997;-77
2022/08/27 04:30:15;;;;;;;;;;;;;;;22.90;51.07;98992.03;4992332;28;19922;-77
2022/08/27 04:32:41;;;;;;;;;;;;;;;22.89;50.88;98990.41;4992003;28;19942;-77
2022/08/27 04:35:06;;;;;;;;;;;;;;;22.89;50.95;98990.41;4992239;28;19914;-77
2022/08/27 04:37:32;;;;;;;;;;;;;;;22.87;51.31;98989.06;4990732;28;20351;-77
2022/08/27 04:39:57;;;;;;;;;;;;;;;22.89;51.12;98995.00;4991885;28;19920;-77
2022/08/27 04:42:23;;;;;;;;;;;;;;;22.95;51.21;99001.97;4991733;28;19918;-77
2022/08/27 04:44:49;;;;;;;;;;;;;;;22.94;51.26;98990.41;4991733;28;19920;-76
2022/08/27 04:47:15;;;;;;;;;;;;;;;22.93;51.03;98999.56;4991770;28;19918;-77
2022/08/27 04:49:41;;;;;;;;;;;;;;;22.93;51.14;98998.75;4991707;28;19914;-77
2022/08/27 04:52:06;;;;;;;;;;;;;;;22.88;51.29;98998.75;4991665;28;19920;-77
2022/08/27 04:54:32;;;;;;;;;;;;;;;22.86;51.16;98996.34;4991587;28;19913;-77
2022/08/27 04:56:58;;;;;;;;;;;;;;;22.85;51.52;99002.81;4991682;28;19914;-77
2022/08/27 04:59:23;;;;;;;;;;;;;;;22.79;51.46;98998.47;4991677;28;19921;-77
2022/08/27 05:01:49;;;;;;;;;;;;;;;22.80;51.00;99000.13;4990367;28;19925;-76
2022/08/27 05:04:15;;;;;;;;;;;;;;;22.68;51.62;98999.56;4991759;28;19918;-76
2022/08/27 05:06:41;;;;;;;;;;;;;;;22.60;51.89;99008.19;4991679;28;20291;-76
2022/08/27 05:09:07;;;;;;;;;;;;;;;22.56;51.71;99007.91;4990213;28;19952;-76
2022/08/27 05:11:33;;;;;;;;;;;;;;;22.62;51.57;99016.78;4991435;28;19949;-76
2022/08/27 05:14:06;;;;;;;;;;;;;;;22.68;51.26;99005.75;4991394;28;19914;-77
2022/08/27 05:16:32;;;;;;;;;;;;;;;22.78;50.99;99008.44;4989945;28;19922;-77
2022/08/27 05:18:58;;;;;;;;;;;;;;;22.94;50.89;99016.53;4989880;28;20379;-76
2022/08/27 05:21:27;;;;;;;;;;;;;;;23.08;50.66;99013.03;4991315;28;19914;-76
2022/08/27 05:23:53;;;;;;;;;;;;;;;23.28;50.18;99016.75;4990053;28;19913;-77
2022/08/27 05:26:18;;;;;;;;;;;;;;;23.41;49.85;99019.66;4991289;28;19918;-76
2022/08/27 05:28:44;;;;;;;;;;;;;;;23.52;49.63;99008.84;4991113;28;19914;-77
2022/08/27 05:31:10;;;;;;;;;;;;;;;23.64;49.34;99018.25;4990951;28;19914;-77
2022/08/27 05:33:37;;;;;;;;;;;;;;;23.71;48.88;99024.16;4991205;28;19945;-77
2022/08/27 05:36:03;;;;;;;;;;;;;;;23.84;48.53;99030.06;4991148;28;19994;-77
2022/08/27 05:38:29;;;;;;;;;;;;;;;23.89;48.35;99036.25;4989788;28;20379;-77
2022/08/27 05:41:02;;;;;;;;;;;;;;;24.00;48.41;99032.41;4990944;28;19921;-77
2022/08/27 05:43:27;;;;;;;;;;;;;;;24.12;48.29;99033.97;4990994;28;19914;-77
2022/08/27 05:45:53;;;;;;;;;;;;;;;24.21;48.08;99040.38;4989663;28;20005;-77
2022/08/27 05:48:18;;;;;;;;;;;;;;;24.24;48.09;99037.91;4990819;28;19925;-77
2022/08/27 05:50:43;;;;;;;;;;;;;;;24.28;47.94;99038.19;4990993;28;19913;-77
2022/08/27 05:53:09;;;;;;;;;;;;;;;24.33;48.02;99032.78;4991053;28;20314;-77
2022/08/27 05:55:36;;;;;;;;;;;;;;;24.34;47.94;99031.69;4990895;28;19914;-77
2022/08/27 05:58:01;;;;;;;;;;;;;;;24.38;47.67;99028.13;4990577;28;19953;-76
2022/08/27 06:03:11;;;;;;;;;;;;;;;24.43;47.24;99027.31;4990571;28;19936;-77
2022/08/27 06:05:37;;;;;;;;;;;;;;;24.40;47.13;99030.56;4990405;28;20375;-77
2022/08/27 06:08:02;;;;;;;;;;;;;;;24.40;47.18;99033.25;4990524;28;19957;-77
2022/08/27 06:10:27;;;;;;;;;;;;;;;24.40;47.38;99036.75;4990641;28;19924;-77
2022/08/27 06:12:53;;;;;;;;;;;;;;;24.36;47.25;99029.50;4990717;28;19991;-77
2022/08/27 06:15:18;;;;;;;;;;;;;;;24.43;47.38;99037.28;4990448;28;19913;-77
2022/08/27 06:17:43;;;;;;;;;;;;;;;24.46;47.33;99029.44;4989256;28;20383;-76
2022/08/27 06:20:09;;;;;;;;;;;;;;;24.44;46.99;99037.00;4990267;28;20016;-77
2022/08/27 06:22:35;;;;;;;;;;;;;;;24.54;46.94;99036.97;4990573;28;19914;-77
2022/08/27 06:25:00;;;;;;;;;;;;;;;24.62;47.21;99036.34;4990494;28;19917;-77
2022/08/27 06:27:25;;;;;;;;;;;;;;;24.69;47.13;99036.84;4990342;28;19914;-77
2022/08/27 06:29:50;;;;;;;;;;;;;;;24.76;46.71;99041.09;4988564;28;19971;-77
2022/08/27 06:32:16;;;;;;;;;;;;;;;24.84;46.94;99033.19;4988978;28;19928;-77
2022/08/27 06:34:41;;;;;;;;;;;;;;;24.89;46.51;99029.66;4990164;28;19921;-77
2022/08/27 06:37:07;;;;;;;;;;;;;;;24.94;46.46;99037.69;4990127;28;19920;-77
2022/08/27 06:39:32;;;;;;;;;;;;;;;25.02;46.24;99040.63;4988903;28;19918;-77
2022/08/27 06:41:58;;;;;;;;;;;;;;;25.12;46.15;99044.31;4988968;28;20398;-77
2022/08/27 06:44:23;;;;;;;;;;;;;;;25.20;46.21;99041.78;4990003;28;20398;-77
2022/08/27 06:46:49;;;;;;;;;;;;;;;25.29;45.87;99047.41;4990331;28;19920;-77
2022/08/27 06:49:14;;;;;;;;;;;;;;;25.36;45.65;99047.88;4989763;28;19910;-77
2022/08/27 06:51:42;;;;;;;;;;;;;;;25.45;45.25;99048.84;4989837;28;19957;-77
2022/08/27 06:54:08;;;;;;;;;;;;;;;25.57;44.55;99051.16;4988687;28;19974;-77
2022/08/27 06:56:35;;;;;;;;;;;;;;;25.65;44.06;99048.66;4990093;28;19948;-77
2022/08/27 06:59:02;;;;;;;;;;;;;;;25.77;44.10;99061.75;4988575;28;20408;-77
2022/08/27 07:01:29;;;;;;;;;;;;;;;25.88;43.17;99063.25;4989874;28;19953;-77
2022/08/27 07:03:57;;;;;;;;;;;;;;;25.92;41.50;99058.84;4989885;28;20008;-77
2022/08/27 07:06:23;;;;;;;;;;;;;;;26.01;41.00;99071.72;4988620;28;19920;-77
2022/08/27 07:08:48;;;;;;;;;;;;;;;26.07;41.92;99059.78;4989545;28;19925;-77
2022/08/27 07:11:14;;;;;;;;;;;;;;;26.14;42.29;99062.94;4989878;28;20314;-77
2022/08/27 07:13:40;;;;;;;;;;;;;;;26.20;42.67;99065.28;4989727;28;20004;-77
2022/08/27 07:16:07;;;;;;;;;;;;;;;26.28;42.34;99066.50;4989756;28;19995;-77
2022/08/27 07:18:33;;;;;;;;;;;;;;;26.33;42.37;99068.38;4989442;28;19929;-77
2022/08/27 07:20:59;;;;;;;;;;;;;;;26.40;42.31;99063.41;4989597;28;20303;-77
2022/08/27 07:23:24;;;;;;;;;;;;;;;26.50;41.87;99069.47;4989520;28;19921;-77
2022/08/27 07:25:49;;;;;;;;;;;;;;;26.56;41.39;99064.78;4989363;28;20382;-77
2022/08/27 07:28:15;;;;;;;;;;;;;;;26.69;41.96;99071.34;4989338;28;20381;-77
2022/08/27 07:30:40;;;;;;;;;;;;;;;26.84;41.25;99068.41;4987951;28;19918;-77
2022/08/27 07:33:05;;;;;;;;;;;;;;;26.93;41.43;99069.34;4989384;28;19910;-77
2022/08/27 07:35:31;;;;;;;;;;;;;;;27.04;41.02;99067.28;4989362;28;19914;-77
2022/08/27 07:37:57;;;;;;;;;;;;;;;27.15;41.45;99074.94;4989464;28;19920;-77
2022/08/27 07:40:22;;;;;;;;;;;;;;;27.21;40.11;99064.81;4988591;28;19914;-77
2022/08/27 07:45:31;;;;;;;;;;;;;;;27.37;39.94;99063.44;4992486;28;19921;-77
2022/08/27 07:47:56;;;;;;;;;;;;;;;27.45;39.76;99061.94;4992571;28;20302;-77
2022/08/27 07:50:22;;;;;;;;;;;;;;;27.49;38.35;99069.16;4992553;28;19918;-77
2022/08/27 07:52:48;;;;;;;;;;;;;;;27.60;39.25;99063.56;4992725;28;19953;-77
2022/08/27 07:55:14;;;;;;;;;;;;;;;27.69;39.87;99061.78;4991165;28;19921;-77
2022/08/27 07:57:39;;;;;;;;;;;;;;;27.77;37.57;99063.78;4991322;28;19914;-77
2022/08/27 08:00:07;;;;;;;;;;;;;;;27.86;38.82;99061.97;4992497;28;19950;-77
2022/08/27 08:02:33;;;;;;;;;;;;;;;27.94;39.12;99063.16;4992495;28;19917;-77
2022/08/27 08:04:59;;;;;;;;;;;;;;;28.03;38.32;99059.44;4992400;28;19925;-77
2022/08/27 08:07:24;;;;;;;;;;;;;;;28.09;37.18;99065.56;4992323;28;19914;-77
2022/08/27 08:09:49;;;;;;;;;;;;;;;28.13;36.60;99055.69;4990862;28;20000;-77
2022/08/27 08:12:15;;;;;;;;;;;;;;;28.20;38.07;99071.56;4992178;28;19914;-77
2022/08/27 08:14:40;;;;;;;;;;;;;;;28.25;36.68;99063.38;4992380;28;19914;-77
2022/08/27 08:17:05;;;;;;;;;;;;;;;28.30;36.54;99064.06;4992400;28;19918;-77
2022/08/27 08:19:32;;;;;;;;;;;;;;;28.39;37.22;99066.84;4991694;28;19971;-77
2022/08/27 08:21:57;;;;;;;;;;;;;;;28.46;37.20;99059.06;4992090;28;20312;-77
2022/08/27 08:24:23;;;;;;;;;;;;;;;28.54;37.03;99068.41;4992260;28;19968;-77
2022/08/27 08:26:48;;;;;;;;;;;;;;;28.61;38.04;99066.06;4992172;28;19918;-77
2022/08/27 08:29:13;;;;;;;;;;;;;;;28.71;37.03;99069.31;4991983;28;19921;-77
2022/08/27 08:31:39;;;;;;;;;;;;;;;28.82;37.17;99067.16;4991983;28;19970;-77
2022/08/27 08:34:04;;;;;;;;;;;;;;;28.93;36.72;99057.66;4992011;28;19921;-77
2022/08/27 08:36:30;;;;;;;;;;;;;;;29.05;35.88;99059.84;4990796;28;19914;-77
2022/08/27 08:38:55;;;;;;;;;;;;;;;29.18;35.99;99061.66;4991843;28;19917;-78
2022/08/27 08:41:37;;;;;;;;;;;;;;;29.30;35.84;99058.38;4991920;28;20011;-77
2022/08/27 08:44:07;;;;;;;;;;;;;;;29.45;35.16;99057.97;4990602;28;19920;-77
2022/08/27 08:46:36;;;;;;;;;;;;;;;29.52;32.71;99061.03;4990682;28;20390;-78
2022/08/27 08:49:08;;;;;;;;;;;;;;;29.60;35.16;99054.03;4990339;28;19957;-77
2022/08/27 08:51:39;;;;;;;;;;;;;;;29.69;34.41;99063.03;4991081;28;20422;-77
2022/08/27 08:54:06;;;;;;;;;;;;;;;29.90;33.63;99057.81;4991809;28;19913;-77
2022/08/27 08:56:53;;;;;;;;;;;;;;;30.08;35.58;99058.69;4991836;28;20434;-77
2022/08/27 08:59:18;;;;;;;;;;;;;;;30.25;34.57;99043.16;4991638;28;19922;-77
2022/08/27 09:01:44;;;;;;;;;;;;;;;30.45;35.25;99054.53;4991662;28;19921;-77
2022/08/27 09:04:10;;;;;;;;;;;;;;;30.60;34.54;99048.66;4991708;28;19970;-77
2022/08/27 09:06:44;;;;;;;;;;;;;;;30.66;32.86;99058.25;4991678;28;19945;-77
2022/08/27 09:09:24;;;;;;;;;;;;;;;30.74;33.47;99049.28;4991530;28;19913;-78
2022/08/27 09:11:49;;;;;;;;;;;;;;;30.90;33.30;99060.47;4991383;28;20390;-78
2022/08/27 09:14:18;;;;;;;;;;;;;;;31.10;31.95;99057.03;4991384;28;20006;-78
2022/08/27 09:16:43;;;;;;;;;;;;;;;31.32;33.63;99050.59;4990100;28;19921;-77
2022/08/27 09:19:08;;;;;;;;;;;;;;;31.51;32.86;99055.66;4990909;28;19925;-77
2022/08/27 09:21:43;;;;;;;;;;;;;;;31.59;29.83;99049.38;4989919;28;19921;-77
2022/08/27 09:24:18;;;;;;;;;;;;;;;31.70;31.29;99053.34;4991382;28;19918;-77
2022/08/27 09:26:43;;;;;;;;;;;;;;;31.90;31.68;99052.59;4991331;28;20330;-77
2022/08/27 09:29:17;;;;;;;;;;;;;;;32.11;29.80;99049.09;4990052;28;19914;-77
2022/08/27 09:31:45;;;;;;;;;;;;;;;32.28;28.35;99053.66;4991169;28;20401;-77
2022/08/27 09:34:10;;;;;;;;;;;;;;;32.43;30.07;99045.66;4991161;28;19933;-77
2022/08/27 09:36:47;;;;;;;;;;;;;;;32.52;32.43;99043.66;4991129;28;20374;-77
2022/08/27 09:39:12;;;;;;;;;;;;;;;32.67;27.65;99041.41;4990914;28;19929;-77
2022/08/27 09:41:47;;;;;;;;;;;;;;;32.73;29.03;99040.09;4991010;28;20322;-77
2022/08/27 09:44:16;;;;;;;;;;;;;;;32.84;29.72;99041.31;4989746;28;19914;-77
2022/08/27 09:46:56;;;;;;;;;;;;;;;33.00;29.72;99044.19;4991011;28;19914;-77
2022/08/27 09:49:23;;;;;;;;;;;;;;;33.22;27.43;99030.09;4990935;28;19922;-77
2022/08/27 09:51:49;;;;;;;;;;;;;;;33.37;29.58;99032.19;4991080;28;19928;-77
2022/08/27 09:54:23;;;;;;;;;;;;;;;33.55;28.30;99035.53;4989489;28;20310;-77
2022/08/27 09:56:49;;;;;;;;;;;;;;;33.66;31.38;99036.66;4989418;28;19922;-77
2022/08/27 09:59:17;;;;;;;;;;;;;;;33.79;27.67;99037.44;4990749;28;19928;-77
2022/08/27 10:01:51;;;;;;;;;;;;;;;33.96;29.89;99036.41;4990793;28;19918;-77
2022/08/27 10:04:23;;;;;;;;;;;;;;;34.14;27.40;99036.94;4989769;28;19984;-77
2022/08/27 10:06:49;;;;;;;;;;;;;;;34.22;24.94;99033.28;4989388;28;19917;-77
2022/08/27 10:09:18;;;;;;;;;;;;;;;34.33;27.42;99028.94;4990709;28;19960;-77
2022/08/27 10:11:48;;;;;;;;;;;;;;;34.53;27.86;99035.38;4990658;28;19914;-77
2022/08/27 10:14:18;;;;;;;;;;;;;;;34.64;27.49;99029.03;4990635;28;19913;-77
2022/08/27 10:16:53;;;;;;;;;;;;;;;34.80;27.21;99028.28;4990502;28;20320;-77
2022/08/27 10:19:30;;;;;;;;;;;;;;;34.92;27.01;99031.78;4990295;28;19926;-77
2022/08/27 10:22:03;;;;;;;;;;;;;;;35.03;26.10;99026.59;4989224;28;19953;-77
2022/08/27 10:24:32;;;;;;;;;;;;;;;35.14;26.68;99022.16;4989120;28;19914;-77
2022/08/27 10:26:57;;;;;;;;;;;;;;;35.14;23.63;99019.44;4990417;28;19913;-77
2022/08/27 10:29:30;;;;;;;;;;;;;;;35.21;24.64;99027.03;4990025;28;19921;-77
2022/08/27 10:32:02;;;;;;;;;;;;;;;35.37;26.65;99027.06;4989977;28;20370;-77
2022/08/27 10:34:51;;;;;;;;;;;;;;;35.32;25.62;99037.16;4989197;28;20306;-78
2022/08/27 10:37:40;;;;;;;;;;;;;;;35.39;26.29;99030.25;4980962;28;19914;-78
2022/08/27 10:40:14;;;;;;;;;;;;;;;35.44;23.21;99022.53;4984751;28;19925;-78
2022/08/27 10:42:43;;;;;;;;;;;;;;;35.55;24.22;99025.53;4989998;28;19921;-78
2022/08/27 10:45:16;;;;;;;;;;;;;;;35.72;25.41;99027.13;4990067;28;20063;-78
2022/08/27 10:47:47;;;;;;;;;;;;;;;35.87;24.28;99018.88;4990116;28;19971;-77
2022/08/27 10:50:36;;;;;;;;;;;;;;;35.89;24.30;99022.06;4990019;28;20330;-77
2022/08/27 10:53:05;;;;;;;;;;;;;;;35.89;22.85;99022.06;4984499;28;20366;-77
2022/08/27 10:55:39;;;;;;;;;;;;;;;36.08;24.83;99017.75;4989883;28;19913;-77
2022/08/27 10:58:23;;;;;;;;;;;;;;;36.34;25.28;99022.63;4989947;28;19936;-77
2022/08/27 11:00:52;;;;;;;;;;;;;;;36.37;24.90;99017.19;4989960;28;19922;-77
2022/08/27 11:03:34;;;;;;;;;;;;;;;36.55;25.54;99023.06;4989886;28;19918;-77
2022/08/27 11:06:02;;;;;;;;;;;;;;;36.72;23.98;99011.63;4989670;28;19913;-78
2022/08/27 11:08:30;;;;;;;;;;;;;;;36.81;24.72;99000.41;4989625;28;19973;-77
2022/08/27 11:11:06;;;;;;;;;;;;;;;36.94;24.86;99007.31;4989977;28;19975;-77
2022/08/27 11:13:34;;;;;;;;;;;;;;;37.11;24.12;99003.28;4989709;28;19997;-77
2022/08/27 11:16:01;;;;;;;;;;;;;;;37.22;23.22;99005.06;4989293;28;20421;-77
2022/08/27 11:18:39;;;;;;;;;;;;;;;37.21;26.11;99009.00;4989290;28;19930;-77
2022/08/27 11:21:08;;;;;;;;;;;;;;;37.21;23.14;99009.00;4989553;28;19971;-78
2022/08/27 11:23:40;;;;;;;;;;;;;;;37.16;24.39;99009.28;4989608;28;19920;-79
2022/08/27 11:26:06;;;;;;;;;;;;;;;36.79;23.88;99000.75;4989364;28;20305;-78
2022/08/27 11:28:43;;;;;;;;;;;;;;;36.67;24.05;99006.41;4988172;28;20321;-78
2022/08/27 11:31:18;;;;;;;;;;;;;;;36.80;25.83;99010.63;4989566;28;19941;-78
2022/08/27 11:34:02;;;;;;;;;;;;;;;36.88;23.73;99003.28;4989470;28;19914;-78
2022/08/27 11:36:39;;;;;;;;;;;;;;;36.97;23.67;99003.03;4989341;28;19952;-78
2022/08/27 11:39:16;;;;;;;;;;;;;;;37.13;23.30;98995.44;4989381;28;19913;-78
2022/08/27 11:41:41;;;;;;;;;;;;;;;37.17;21.25;98991.63;4989391;28;20418;-78
2022/08/27 11:44:08;;;;;;;;;;;;;;;37.13;22.26;98984.44;4989383;28;19980;-78
2022/08/27 11:46:47;;;;;;;;;;;;;;;37.19;24.85;98985.75;4989346;28;20390;-78
2022/08/27 11:49:23;;;;;;;;;;;;;;;37.29;24.56;98981.59;4989156;28;19917;-77
2022/08/27 11:51:55;;;;;;;;;;;;;;;37.36;21.53;98977.00;4989027;28;19917;-78
2022/08/27 11:54:25;;;;;;;;;;;;;;;37.45;23.27;98979.47;4989280;28;20317;-77
2022/08/27 11:56:51;;;;;;;;;;;;;;;37.60;23.28;98975.75;4989235;28;19966;-77
2022/08/27 11:59:22;;;;;;;;;;;;;;;37.73;22.66;98985.44;4989234;28;19914;-77
2022/08/27 12:01:48;;;;;;;;;;;;;;;37.76;23.35;98981.94;4989065;28;19917;-77
2022/08/27 12:04:28;;;;;;;;;;;;;;;37.83;22.88;98973.75;4989013;28;19910;-77
2022/08/27 12:07:03;;;;;;;;;;;;;;;37.96;20.79;98968.03;4988924;28;20066;-78
2022/08/27 12:09:28;;;;;;;;;;;;;;;37.95;22.03;98961.72;4989264;28;19989;-77
2022/08/27 12:11:53;;;;;;;;;;;;;;;37.95;24.63;98958.97;4989202;28;20342;-77
2022/08/27 12:14:38;;;;;;;;;;;;;;;37.93;20.45;98961.31;4989134;28;20402;-77
2022/08/27 12:17:15;;;;;;;;;;;;;;;37.83;22.76;98962.72;4989000;28;19997;-77
2022/08/27 12:20:01;;;;;;;;;;;;;;;37.83;23.96;98956.41;4988379;28;19975;-77
2022/08/27 12:22:29;;;;;;;;;;;;;;;37.84;23.96;98958.81;4988219;28;19914;-78
2022/08/27 12:24:55;;;;;;;;;;;;;;;37.78;21.01;98954.78;4988714;28;19957;-77
2022/08/27 12:27:20;;;;;;;;;;;;;;;37.77;23.07;98953.19;4990700;28;19914;-77
2022/08/27 12:29:49;;;;;;;;;;;;;;;37.71;20.43;98943.69;4990774;28;19914;-77
2022/08/27 12:32:26;;;;;;;;;;;;;;;37.69;22.55;98948.78;4992186;28;19917;-77
2022/08/27 12:35:11;;;;;;;;;;;;;;;37.77;21.91;98942.19;4991982;28;20017;-77
2022/08/27 12:37:48;;;;;;;;;;;;;;;37.77;22.60;98944.94;4991372;28;19914;-77
2022/08/27 12:40:19;;;;;;;;;;;;;;;37.81;21.78;98945.78;4991776;28;19917;-77
2022/08/27 12:42:45;;;;;;;;;;;;;;;37.84;21.52;98944.22;4991809;28;19913;-77
2022/08/27 12:45:21;;;;;;;;;;;;;;;37.89;21.38;98935.63;4991858;28;19914;-77
2022/08/27 12:47:47;;;;;;;;;;;;;;;37.77;23.09;98928.41;4990577;28;19913;-78
2022/08/27 12:50:12;;;;;;;;;;;;;;;37.75;21.79;98939.00;4992015;28;19914;-78
2022/08/27 12:52:40;;;;;;;;;;;;;;;37.81;21.29;98937.50;4991912;28;19914;-77
2022/08/27 12:55:15;;;;;;;;;;;;;;;37.83;23.04;98937.94;4990643;28;19921;-77
2022/08/27 12:57:43;;;;;;;;;;;;;;;37.83;22.03;98928.88;4991665;28;19914;-78
2022/08/27 13:00:18;;;;;;;;;;;;;;;37.89;22.68;98940.34;4991767;28;19951;-78